createdAt,value
2023-04-07T00:00:06.297Z,63.83
2023-04-07T00:02:08.988Z,63.54
2023-04-07T00:04:11.717Z,63.83
2023-04-07T00:06:14.352Z,63.95
2023-04-07T00:08:16.909Z,63.61
2023-04-07T00:10:20.825Z,62.68
2023-04-07T00:12:23.380Z,63.08
2023-04-07T00:14:25.920Z,62.85
2023-04-07T00:16:28.593Z,63.29
2023-04-07T00:18:31.119Z,62.75
2023-04-07T00:20:33.683Z,61.92
2023-04-07T00:22:36.251Z,61.85
2023-04-07T00:24:38.828Z,62.33
2023-04-07T00:26:42.728Z,62.34
2023-04-07T00:28:45.293Z,62.67
2023-04-07T00:30:47.939Z,62.77
2023-04-07T00:32:51.366Z,62.17
2023-04-07T00:34:54.001Z,62.49
2023-04-07T00:36:56.874Z,62.74
2023-04-07T00:38:59.396Z,62.93
2023-04-07T00:41:02.066Z,63.33
2023-04-07T00:43:05.976Z,63.07
2023-04-07T00:45:10.143Z,63.20
2023-04-07T00:47:13.371Z,63.37
2023-04-07T00:49:17.777Z,63.15
2023-04-07T00:51:22.290Z,63.02
2023-04-07T00:53:25.232Z,63.31
2023-04-07T00:55:27.907Z,62.78
2023-04-07T00:57:30.441Z,62.63
2023-04-07T00:59:34.700Z,62.43
2023-04-07T01:01:45.418Z,62.23
2023-04-07T01:03:54.825Z,62.47
2023-04-07T01:06:01.984Z,61.45
2023-04-07T01:08:13.974Z,62.13
2023-04-07T01:10:24.596Z,61.66
2023-04-07T01:12:36.157Z,61.74
2023-04-07T01:14:48.024Z,62.38
2023-04-07T01:16:53.079Z,61.71
2023-04-07T01:19:01.299Z,61.54
2023-04-07T01:21:07.542Z,61.42
2023-04-07T01:23:15.049Z,61.51
2023-04-07T01:25:30.411Z,61.83
2023-04-07T01:27:39.239Z,60.97
2023-04-07T01:29:47.787Z,61.15
2023-04-07T01:31:51.446Z,60.80
2023-04-07T01:33:56.325Z,60.70
2023-04-07T01:36:01.049Z,61.30
2023-04-07T01:38:04.930Z,61.08
2023-04-07T01:40:09.638Z,61.75
2023-04-07T01:42:13.439Z,61.14
2023-04-07T01:44:16.568Z,61.70
2023-04-07T01:46:21.284Z,61.82
2023-04-07T01:48:24.367Z,61.44
2023-04-07T01:50:27.936Z,61.49
2023-04-07T01:52:31.184Z,61.97
2023-04-07T01:54:34.749Z,61.77
2023-04-07T01:56:37.771Z,61.61
2023-04-07T01:58:40.663Z,62.06
2023-04-07T02:00:43.458Z,61.80
2023-04-07T02:02:50.466Z,62.17
2023-04-07T02:04:56.721Z,62.13
2023-04-07T02:07:04.057Z,61.55
2023-04-07T02:09:11.680Z,61.51
2023-04-07T02:11:15.369Z,61.41
2023-04-07T02:13:21.233Z,61.15
2023-04-07T02:15:25.048Z,60.78
2023-04-07T02:17:29.441Z,60.93
2023-04-07T02:19:34.688Z,60.92
2023-04-07T02:21:37.885Z,60.59
2023-04-07T02:23:40.579Z,61.22
2023-04-07T02:25:43.225Z,61.29
2023-04-07T02:27:45.875Z,61.45
2023-04-07T02:29:48.449Z,61.28
2023-04-07T02:31:51.047Z,61.56
2023-04-07T02:33:53.766Z,61.60
2023-04-07T02:35:57.741Z,61.32
2023-04-07T02:38:00.361Z,61.93
2023-04-07T02:40:03.114Z,62.00
2023-04-07T02:42:05.840Z,62.16
2023-04-07T02:44:08.397Z,62.25
2023-04-07T02:46:11.030Z,62.62
2023-04-07T02:48:13.660Z,62.45
2023-04-07T02:50:16.396Z,62.72
2023-04-07T02:52:20.284Z,62.75
2023-04-07T02:54:22.870Z,62.63
2023-04-07T02:56:25.770Z,62.63
2023-04-07T02:58:28.382Z,63.01
2023-04-07T03:00:31.189Z,63.27
2023-04-07T03:02:34.019Z,63.12
2023-04-07T03:04:36.626Z,63.43
2023-04-07T03:06:39.186Z,63.54
2023-04-07T03:08:43.528Z,63.26
2023-04-07T03:10:46.192Z,63.13
2023-04-07T03:12:48.710Z,62.69
2023-04-07T03:14:51.251Z,63.06
2023-04-07T03:16:53.840Z,62.95
2023-04-07T03:18:56.383Z,63.29
2023-04-07T03:20:59.614Z,62.81
2023-04-07T03:23:02.880Z,63.22
2023-04-07T03:25:07.820Z,63.08
2023-04-07T03:27:10.412Z,63.21
2023-04-07T03:29:13.050Z,63.02
2023-04-07T03:31:15.908Z,62.62
2023-04-07T03:33:18.488Z,62.65
2023-04-07T03:35:21.034Z,62.53
2023-04-07T03:37:23.702Z,62.21
2023-04-07T03:39:26.343Z,62.13
2023-04-07T03:41:30.360Z,62.74
2023-04-07T03:43:32.944Z,62.77
2023-04-07T03:45:35.574Z,61.79
2023-04-07T03:47:38.126Z,62.33
2023-04-07T03:49:40.919Z,62.21
2023-04-07T03:51:43.557Z,62.33
2023-04-07T03:53:46.317Z,62.34
2023-04-07T03:55:49.028Z,62.79
2023-04-07T03:57:52.943Z,62.98
2023-04-07T03:59:56.161Z,63.09
2023-04-07T04:01:58.806Z,62.58
2023-04-07T04:04:01.972Z,62.99
2023-04-07T04:06:05.075Z,63.01
2023-04-07T04:08:08.246Z,62.64
2023-04-07T04:10:11.423Z,62.62
2023-04-07T04:12:14.049Z,62.63
2023-04-07T04:14:17.999Z,62.16
2023-04-07T04:16:20.621Z,62.34
2023-04-07T04:18:23.246Z,62.83
2023-04-07T04:20:25.823Z,63.42
2023-04-07T04:22:28.373Z,63.39
2023-04-07T04:24:30.909Z,63.67
2023-04-07T04:26:33.493Z,63.61
2023-04-07T04:28:36.339Z,63.65
2023-04-07T04:30:40.270Z,63.53
2023-04-07T04:32:42.829Z,63.69
2023-04-07T04:34:45.812Z,63.73
2023-04-07T04:36:49.174Z,63.94
2023-04-07T04:38:51.808Z,63.91
2023-04-07T04:40:54.398Z,64.52
2023-04-07T04:42:56.928Z,64.75
2023-04-07T04:44:59.460Z,64.97
2023-04-07T04:47:03.414Z,64.81
2023-04-07T04:49:06.464Z,65.04
2023-04-07T04:51:09.139Z,65.06
2023-04-07T04:53:11.690Z,65.27
2023-04-07T04:55:14.664Z,65.51
2023-04-07T04:57:17.406Z,65.58
2023-04-07T04:59:20.010Z,65.51
2023-04-07T05:01:22.798Z,65.21
2023-04-07T05:03:28.192Z,65.22
2023-04-07T05:05:30.908Z,65.33
2023-04-07T05:07:35.133Z,65.21
2023-04-07T05:09:37.718Z,65.71
2023-04-07T05:11:43.250Z,65.72
2023-04-07T05:13:48.714Z,65.77
2023-04-07T05:15:51.346Z,65.54
2023-04-07T05:17:53.954Z,65.58
2023-04-07T05:19:57.865Z,65.34
2023-04-07T05:22:00.616Z,65.38
2023-04-07T05:24:03.249Z,65.86
2023-04-07T05:26:05.943Z,66.01
2023-04-07T05:28:08.501Z,66.04
2023-04-07T05:30:11.806Z,65.93
2023-04-07T05:32:14.376Z,66.15
2023-04-07T05:34:16.927Z,66.08
2023-04-07T05:36:20.840Z,65.78
2023-04-07T05:38:23.452Z,66.19
2023-04-07T05:40:26.092Z,66.13
2023-04-07T05:42:28.632Z,66.05
2023-04-07T05:44:31.193Z,65.95
2023-04-07T05:46:33.767Z,65.77
2023-04-07T05:48:36.510Z,66.07
2023-04-07T05:50:39.052Z,66.12
2023-04-07T05:52:42.922Z,66.13
2023-04-07T05:54:45.715Z,66.48
2023-04-07T05:56:48.353Z,66.32
2023-04-07T05:58:51.242Z,66.69
2023-04-07T06:00:54.746Z,66.35
2023-04-07T06:02:57.430Z,66.15
2023-04-07T06:05:00.376Z,65.80
2023-04-07T06:07:03.067Z,66.15
2023-04-07T06:09:08.190Z,65.40
2023-04-07T06:11:11.071Z,64.85
2023-04-07T06:13:13.652Z,65.36
2023-04-07T06:15:16.409Z,65.38
2023-04-07T06:17:19.056Z,65.94
2023-04-07T06:19:21.615Z,65.53
2023-04-07T06:21:24.839Z,66.03
2023-04-07T06:23:27.641Z,65.92
2023-04-07T06:25:31.541Z,66.17
2023-04-07T06:27:34.170Z,66.66
2023-04-07T06:29:36.746Z,66.69
2023-04-07T06:31:39.308Z,66.67
2023-04-07T06:33:41.945Z,66.38
2023-04-07T06:35:44.581Z,66.65
2023-04-07T06:37:47.144Z,66.26
2023-04-07T06:39:49.992Z,66.10
2023-04-07T06:41:53.909Z,65.58
2023-04-07T06:43:56.470Z,65.60
2023-04-07T06:45:59.106Z,65.79
2023-04-07T06:48:01.985Z,65.55
2023-04-07T06:50:04.799Z,65.43
2023-04-07T06:52:07.357Z,65.29
2023-04-07T06:54:12.849Z,65.45
2023-04-07T06:56:15.670Z,65.56
2023-04-07T06:58:19.555Z,65.50
2023-04-07T07:00:22.954Z,65.82
2023-04-07T07:02:26.016Z,65.51
2023-04-07T07:04:28.912Z,65.35
2023-04-07T07:06:31.734Z,64.83
2023-04-07T07:08:34.675Z,64.80
2023-04-07T07:10:37.252Z,64.30
2023-04-07T07:12:39.784Z,64.51
2023-04-07T07:14:43.697Z,64.57
2023-04-07T07:16:46.278Z,64.78
2023-04-07T07:18:48.836Z,64.66
2023-04-07T07:20:51.636Z,64.28
2023-04-07T07:22:54.177Z,63.88
2023-04-07T07:24:56.754Z,64.17
2023-04-07T07:26:59.289Z,64.03
2023-04-07T07:29:02.355Z,64.09
2023-04-07T07:31:12.872Z,64.42
2023-04-07T07:33:15.456Z,64.25
2023-04-07T07:35:18.368Z,63.55
2023-04-07T07:37:21.013Z,62.53
2023-04-07T07:39:23.751Z,62.79
2023-04-07T07:41:27.168Z,63.24
2023-04-07T07:43:30.016Z,63.24
2023-04-07T07:45:32.604Z,62.82
2023-04-07T07:47:37.557Z,63.21
2023-04-07T07:49:40.241Z,62.42
2023-04-07T07:51:42.847Z,62.81
2023-04-07T07:53:45.889Z,62.74
2023-04-07T07:55:49.573Z,62.75
2023-04-07T07:57:52.134Z,62.80
2023-04-07T07:59:54.680Z,62.90
2023-04-07T08:01:57.303Z,62.67
2023-04-07T08:04:01.276Z,61.68
2023-04-07T08:06:04.129Z,61.32
2023-04-07T08:08:06.793Z,61.15
2023-04-07T08:10:10.378Z,61.68
2023-04-07T08:12:12.943Z,61.80
2023-04-07T08:14:15.799Z,61.27
2023-04-07T08:16:19.335Z,61.14
2023-04-07T08:18:21.987Z,60.83
2023-04-07T08:20:26.580Z,60.76
2023-04-07T08:22:29.167Z,60.61
2023-04-07T08:24:32.652Z,60.54
2023-04-07T08:26:35.277Z,60.10
2023-04-07T08:28:37.910Z,59.84
2023-04-07T08:30:40.511Z,60.57
2023-04-07T08:32:45.370Z,58.84
2023-04-07T08:34:50.394Z,59.25
2023-04-07T08:36:54.274Z,58.84
2023-04-07T08:38:56.879Z,59.13
2023-04-07T08:41:04.416Z,58.99
2023-04-07T08:43:10.444Z,58.25
2023-04-07T08:45:14.389Z,58.69
2023-04-07T08:47:19.131Z,58.76
2023-04-07T08:49:23.618Z,58.74
2023-04-07T08:51:29.627Z,57.18
2023-04-07T08:53:38.846Z,57.99
2023-04-07T08:55:42.292Z,58.18
2023-04-07T08:57:45.331Z,58.25
2023-04-07T08:59:51.377Z,58.40
2023-04-07T09:01:53.970Z,58.25
2023-04-07T09:03:58.349Z,57.50
2023-04-07T09:06:02.084Z,57.18
2023-04-07T09:08:04.782Z,57.39
2023-04-07T09:10:09.851Z,57.88
2023-04-07T09:12:12.823Z,57.47
2023-04-07T09:14:16.165Z,57.64
2023-04-07T09:16:19.638Z,57.95
2023-04-07T09:18:22.255Z,58.69
2023-04-07T09:20:25.321Z,58.81
2023-04-07T09:22:38.748Z,58.77
2023-04-07T09:24:42.654Z,58.93
2023-04-07T09:26:46.633Z,59.30
2023-04-07T09:28:51.585Z,59.59
2023-04-07T09:30:55.454Z,60.11
2023-04-07T09:32:59.772Z,59.39
2023-04-07T09:35:02.443Z,59.71
2023-04-07T09:37:07.117Z,59.22
2023-04-07T09:39:10.686Z,58.93
2023-04-07T09:41:15.263Z,58.67
2023-04-07T09:43:20.387Z,58.59
2023-04-07T09:45:34.118Z,59.26
2023-04-07T09:47:38.224Z,58.91
2023-04-07T09:49:51.178Z,59.53
2023-04-07T09:51:55.951Z,59.05
2023-04-07T09:53:58.531Z,58.67
2023-04-07T09:56:01.064Z,58.74
2023-04-07T09:58:05.142Z,57.82
2023-04-07T10:00:11.281Z,57.53
2023-04-07T10:02:13.901Z,57.74
2023-04-07T10:04:17.683Z,56.98
2023-04-07T10:06:20.800Z,57.36
2023-04-07T10:08:23.795Z,56.83
2023-04-07T10:10:28.698Z,56.88
2023-04-07T10:12:33.539Z,57.06
2023-04-07T10:14:38.088Z,56.75
2023-04-07T10:16:44.852Z,55.75
2023-04-07T10:18:47.542Z,54.83
2023-04-07T10:20:51.096Z,54.42
2023-04-07T10:22:56.913Z,55.25
2023-04-07T10:25:05.547Z,55.49
2023-04-07T10:27:12.932Z,55.43
2023-04-07T10:29:16.840Z,55.22
2023-04-07T10:31:20.008Z,54.82
2023-04-07T10:33:49.395Z,56.15
2023-04-07T10:36:05.860Z,55.07
2023-04-07T10:38:13.828Z,52.79
2023-04-07T10:40:29.924Z,51.97
2023-04-07T10:42:48.590Z,51.97
2023-04-07T10:44:51.448Z,52.81
2023-04-07T10:47:07.366Z,53.32
2023-04-07T10:49:13.185Z,54.28
2023-04-07T10:51:17.766Z,54.22
2023-04-07T10:53:20.424Z,54.43
2023-04-07T10:55:34.315Z,54.43
2023-04-07T10:57:37.646Z,54.73
2023-04-07T10:59:43.363Z,53.13
2023-04-07T11:01:46.318Z,53.27
2023-04-07T11:03:57.856Z,51.12
2023-04-07T11:06:05.936Z,51.92
2023-04-07T11:08:08.793Z,52.06
2023-04-07T11:10:12.391Z,52.08
2023-04-07T11:12:23.674Z,51.74
2023-04-07T11:14:28.140Z,51.40
2023-04-07T11:16:37.826Z,51.23
2023-04-07T11:18:41.419Z,50.93
2023-04-07T11:20:46.297Z,48.54
2023-04-07T11:23:01.772Z,49.64
2023-04-07T11:25:04.841Z,50.38
2023-04-07T11:27:13.347Z,51.13
2023-04-07T11:29:15.900Z,51.38
2023-04-07T11:31:22.970Z,51.48
2023-04-07T11:33:27.361Z,50.34
2023-04-07T11:35:29.982Z,50.41
2023-04-07T11:37:32.665Z,50.97
2023-04-07T11:39:36.841Z,51.87
2023-04-07T11:41:47.738Z,52.27
2023-04-07T11:43:51.018Z,52.08
2023-04-07T11:46:08.262Z,52.28
2023-04-07T11:48:30.220Z,52.04
2023-04-07T11:50:40.310Z,52.60
2023-04-07T11:52:44.021Z,52.49
2023-04-07T11:54:50.515Z,52.56
2023-04-07T11:56:55.586Z,53.38
2023-04-07T11:58:59.104Z,53.64
2023-04-07T12:01:09.020Z,53.65
2023-04-07T12:03:14.587Z,53.49
2023-04-07T12:05:17.633Z,53.29
2023-04-07T12:07:20.871Z,53.64
2023-04-07T12:09:28.752Z,53.11
2023-04-07T12:11:33.761Z,52.75
2023-04-07T12:13:36.743Z,52.48
2023-04-07T12:15:39.290Z,52.76
2023-04-07T12:17:47.822Z,52.59
2023-04-07T12:19:51.505Z,52.76
2023-04-07T12:21:54.056Z,52.95
2023-04-07T12:23:56.622Z,53.29
2023-04-07T12:25:59.202Z,53.97
2023-04-07T12:28:03.083Z,54.32
2023-04-07T12:30:06.640Z,54.33
2023-04-07T12:32:09.242Z,54.93
2023-04-07T12:34:12.038Z,55.23
2023-04-07T12:36:14.649Z,55.29
2023-04-07T12:38:17.182Z,55.03
2023-04-07T12:40:19.786Z,54.39
2023-04-07T12:42:22.346Z,53.64
2023-04-07T12:44:27.919Z,52.79
2023-04-07T12:46:30.550Z,53.33
2023-04-07T12:48:33.143Z,52.54
2023-04-07T12:50:36.364Z,52.94
2023-04-07T12:52:41.015Z,52.46
2023-04-07T12:54:44.370Z,52.51
2023-04-07T12:56:47.751Z,52.27
2023-04-07T12:58:50.345Z,52.04
2023-04-07T13:00:54.577Z,51.17
2023-04-07T13:02:57.692Z,50.70
2023-04-07T13:05:00.336Z,50.25
2023-04-07T13:07:03.088Z,50.08
2023-04-07T13:09:05.698Z,49.79
2023-04-07T13:11:08.487Z,49.38
2023-04-07T13:13:11.184Z,48.51
2023-04-07T13:15:13.870Z,47.93
2023-04-07T13:17:18.646Z,48.29
2023-04-07T13:19:21.195Z,47.85
2023-04-07T13:23:29.200Z,49.06
2023-04-07T13:25:31.979Z,49.04
2023-04-07T13:27:34.520Z,48.67
2023-04-07T13:29:37.213Z,47.69
2023-04-07T13:31:39.836Z,48.17
2023-04-07T13:33:43.970Z,48.67
2023-04-07T13:35:46.547Z,48.86
2023-04-07T13:37:49.103Z,48.84
2023-04-07T13:39:51.672Z,48.61
2023-04-07T13:41:54.240Z,48.24
2023-04-07T13:43:58.314Z,48.54
2023-04-07T13:46:00.897Z,48.84
2023-04-07T13:48:03.885Z,48.88
2023-04-07T13:50:08.708Z,48.53
2023-04-07T13:52:11.519Z,48.92
2023-04-07T13:54:14.051Z,49.17
2023-04-07T13:56:16.634Z,49.48
2023-04-07T13:58:19.231Z,49.34
2023-04-07T14:00:21.917Z,49.29
2023-04-07T14:02:26.050Z,49.27
2023-04-07T14:04:28.766Z,48.76
2023-04-07T14:06:32.758Z,47.91
2023-04-07T14:08:35.335Z,47.16
2023-04-07T14:10:37.925Z,46.08
2023-04-07T14:12:41.091Z,45.25
2023-04-07T14:14:43.670Z,44.20
2023-04-07T14:16:46.269Z,44.12
2023-04-07T14:18:49.402Z,44.14
2023-04-07T14:20:52.011Z,44.25
2023-04-07T14:22:58.847Z,44.51
2023-04-07T14:25:01.569Z,44.86
2023-04-07T14:27:05.348Z,45.35
2023-04-07T14:29:07.929Z,45.75
2023-04-07T14:31:13.530Z,46.28
2023-04-07T14:33:17.290Z,45.43
2023-04-07T14:35:19.903Z,46.33
2023-04-07T14:37:24.552Z,46.28
2023-04-07T14:39:29.050Z,46.21
2023-04-07T14:41:31.650Z,46.59
2023-04-07T14:43:34.273Z,46.55
2023-04-07T14:45:36.913Z,46.75
2023-04-07T14:47:39.521Z,46.13
2023-04-07T14:49:42.100Z,46.15
2023-04-07T14:51:45.246Z,45.52
2023-04-07T14:53:53.319Z,46.03
2023-04-07T14:55:57.209Z,46.00
2023-04-07T14:57:59.745Z,45.14
2023-04-07T15:00:02.429Z,44.35
2023-04-07T15:02:05.133Z,44.49
2023-04-07T15:04:07.841Z,44.28
2023-04-07T15:06:11.345Z,44.34
2023-04-07T15:08:13.924Z,44.93
2023-04-07T15:10:18.472Z,45.62
2023-04-07T15:12:22.371Z,45.79
2023-04-07T15:14:24.920Z,46.26
2023-04-07T15:16:27.788Z,46.31
2023-04-07T15:18:30.537Z,45.82
2023-04-07T15:20:33.949Z,45.83
2023-04-07T15:22:36.862Z,46.62
2023-04-07T15:24:39.460Z,46.88
2023-04-07T15:26:42.000Z,47.48
2023-04-07T15:28:45.930Z,47.95
2023-04-07T15:30:48.530Z,48.51
2023-04-07T15:32:58.782Z,48.66
2023-04-07T15:35:01.508Z,49.16
2023-04-07T15:37:04.541Z,49.61
2023-04-07T15:39:07.691Z,50.05
2023-04-07T15:41:10.244Z,50.43
2023-04-07T15:43:13.348Z,50.43
2023-04-07T15:45:17.270Z,50.33
2023-04-07T15:47:19.817Z,50.10
2023-04-07T15:49:24.859Z,50.12
2023-04-07T15:51:30.350Z,50.09
2023-04-07T15:53:33.021Z,50.03
2023-04-07T15:55:39.428Z,49.96
2023-04-07T15:57:41.994Z,50.22
2023-04-07T15:59:44.630Z,50.18
2023-04-07T16:01:48.862Z,50.25
2023-04-07T16:03:51.591Z,50.68
2023-04-07T16:05:55.334Z,50.74
2023-04-07T16:07:57.947Z,50.96
2023-04-07T16:10:00.570Z,51.02
2023-04-07T16:12:03.204Z,50.57
2023-04-07T16:14:08.372Z,50.90
2023-04-07T16:16:11.722Z,51.16
2023-04-07T16:18:15.860Z,51.42
2023-04-07T16:20:18.462Z,51.12
2023-04-07T16:22:21.115Z,50.81
2023-04-07T16:24:23.855Z,50.83
2023-04-07T16:26:26.404Z,50.89
2023-04-07T16:28:29.000Z,50.93
2023-04-07T16:30:31.586Z,51.18
2023-04-07T16:32:34.275Z,51.20
2023-04-07T16:34:38.240Z,51.73
2023-04-07T16:36:41.260Z,51.56
2023-04-07T16:38:43.812Z,51.72
2023-04-07T16:41:00.709Z,51.87
2023-04-07T16:43:05.794Z,52.45
2023-04-07T16:45:09.226Z,52.56
2023-04-07T16:47:12.310Z,52.63
2023-04-07T16:49:14.875Z,52.96
2023-04-07T16:51:19.191Z,53.13
2023-04-07T16:53:21.931Z,53.46
2023-04-07T16:55:24.606Z,53.70
2023-04-07T16:57:27.192Z,54.01
2023-04-07T16:59:31.212Z,53.88
2023-04-07T17:01:33.870Z,54.14
2023-04-07T17:03:37.587Z,54.21
2023-04-07T17:05:40.392Z,54.42
2023-04-07T17:07:44.255Z,54.35
2023-04-07T17:09:46.866Z,54.95
2023-04-07T17:11:49.491Z,54.91
2023-04-07T17:13:55.848Z,55.05
2023-04-07T17:16:00.497Z,55.41
2023-04-07T17:18:03.083Z,56.09
2023-04-07T17:20:06.380Z,56.14
2023-04-07T17:22:09.304Z,56.36
2023-04-07T17:24:15.318Z,56.39
2023-04-07T17:26:17.870Z,56.96
2023-04-07T17:28:20.397Z,56.19
2023-04-07T17:30:23.104Z,55.97
2023-04-07T17:32:26.151Z,56.28
2023-04-07T17:34:28.836Z,56.35
2023-04-07T17:36:32.476Z,55.25
2023-04-07T17:38:35.028Z,55.53
2023-04-07T17:40:38.972Z,55.64
2023-04-07T17:42:41.701Z,55.69
2023-04-07T17:44:44.617Z,56.82
2023-04-07T17:46:47.316Z,57.22
2023-04-07T17:48:51.835Z,57.67
2023-04-07T17:50:54.408Z,58.18
2023-04-07T17:52:58.664Z,58.56
2023-04-07T17:55:02.382Z,57.62
2023-04-07T17:57:06.322Z,58.26
2023-04-07T17:59:08.856Z,58.50
2023-04-07T18:01:11.615Z,58.38
2023-04-07T18:03:15.297Z,58.66
2023-04-07T18:05:18.009Z,58.87
2023-04-07T18:07:20.923Z,59.02
2023-04-07T18:09:23.497Z,58.43
2023-04-07T18:11:26.278Z,58.88
2023-04-07T18:13:30.220Z,58.95
2023-04-07T18:15:32.909Z,58.69
2023-04-07T18:17:35.581Z,58.42
2023-04-07T18:19:38.219Z,58.19
2023-04-07T18:21:41.585Z,58.09
2023-04-07T18:23:44.198Z,58.18
2023-04-07T18:25:47.063Z,57.95
2023-04-07T18:27:49.631Z,57.72
2023-04-07T18:29:53.513Z,57.72
2023-04-07T18:31:56.049Z,58.44
2023-04-07T18:33:59.061Z,58.62
2023-04-07T18:36:03.873Z,58.45
2023-04-07T18:38:06.550Z,58.42
2023-04-07T18:40:10.012Z,58.53
2023-04-07T18:42:12.680Z,58.80
2023-04-07T18:44:15.588Z,59.01
2023-04-07T18:46:19.582Z,59.13
2023-04-07T18:48:22.453Z,59.22
2023-04-07T18:50:24.996Z,59.99
2023-04-07T18:52:27.830Z,60.75
2023-04-07T18:54:30.467Z,61.39
2023-04-07T18:56:33.456Z,62.04
2023-04-07T18:58:44.247Z,61.93
2023-04-07T19:00:46.963Z,62.03
2023-04-07T19:02:51.046Z,62.92
2023-04-07T19:04:53.761Z,62.46
2023-04-07T19:06:57.498Z,63.10
2023-04-07T19:09:00.413Z,63.45
2023-04-07T19:11:03.624Z,63.32
2023-04-07T19:13:06.210Z,64.15
2023-04-07T19:15:09.559Z,63.60
2023-04-07T19:17:12.616Z,64.21
2023-04-07T19:19:18.220Z,64.75
2023-04-07T19:21:21.104Z,64.75
2023-04-07T19:23:23.666Z,65.30
2023-04-07T19:25:27.154Z,65.01
2023-04-07T19:27:29.722Z,64.96
2023-04-07T19:29:32.292Z,64.76
2023-04-07T19:31:35.359Z,65.38
2023-04-07T19:33:38.152Z,65.57
2023-04-07T19:35:42.113Z,65.49
2023-04-07T19:37:46.761Z,65.40
2023-04-07T19:40:01.797Z,65.74
2023-04-07T19:42:05.386Z,65.93
2023-04-07T19:44:08.050Z,65.75
2023-04-07T19:46:10.664Z,65.75
2023-04-07T19:48:13.259Z,66.23
2023-04-07T19:50:15.820Z,65.93
2023-04-07T19:52:19.724Z,66.14
2023-04-07T19:54:22.933Z,66.77
2023-04-07T19:56:25.927Z,67.26
2023-04-07T19:58:28.899Z,67.76
2023-04-07T20:00:33.110Z,67.88
2023-04-07T20:02:36.280Z,67.52
2023-04-07T20:04:38.983Z,67.99
2023-04-07T20:06:41.527Z,68.44
2023-04-07T20:08:46.223Z,69.08
2023-04-07T20:10:51.288Z,70.04
2023-04-07T20:12:53.919Z,68.95
2023-04-07T20:14:56.456Z,69.66
2023-04-07T20:16:59.064Z,70.07
2023-04-07T20:19:01.633Z,70.63
2023-04-07T20:21:05.787Z,70.28
2023-04-07T20:23:08.383Z,69.38
2023-04-07T20:25:12.399Z,70.50
2023-04-07T20:27:14.938Z,71.23
2023-04-07T20:29:17.480Z,71.19
2023-04-07T20:31:21.186Z,71.24
2023-04-07T20:33:23.820Z,70.87
2023-04-07T20:35:26.578Z,71.22
2023-04-07T20:37:29.168Z,71.04
2023-04-07T20:39:31.804Z,71.58
2023-04-07T20:41:36.340Z,71.60
2023-04-07T20:43:38.880Z,72.02
2023-04-07T20:45:41.702Z,72.02
2023-04-07T20:47:44.613Z,72.27
2023-04-07T20:49:47.196Z,72.30
2023-04-07T20:51:49.762Z,72.59
2023-04-07T20:53:52.346Z,72.77
2023-04-07T20:55:54.923Z,72.73
2023-04-07T20:57:58.814Z,72.69
2023-04-07T21:00:01.396Z,73.29
2023-04-07T21:02:04.210Z,73.13
2023-04-07T21:04:06.977Z,73.14
2023-04-07T21:06:09.664Z,73.36
2023-04-07T21:08:14.359Z,73.00
2023-04-07T21:10:17.943Z,72.98
2023-04-07T21:12:20.510Z,72.94
2023-04-07T21:14:24.671Z,72.85
2023-04-07T21:16:27.223Z,72.61
2023-04-07T21:18:29.804Z,72.27
2023-04-07T21:20:32.414Z,72.27
2023-04-07T21:22:34.960Z,72.03
2023-04-07T21:24:37.504Z,72.24
2023-04-07T21:26:40.048Z,71.22
2023-04-07T21:28:42.636Z,71.20
2023-04-07T21:30:46.602Z,71.75
2023-04-07T21:32:49.263Z,71.59
2023-04-07T21:34:53.102Z,71.66
2023-04-07T21:36:55.672Z,71.65
2023-04-07T21:38:58.299Z,71.53
2023-04-07T21:41:03.264Z,71.37
2023-04-07T21:43:05.873Z,71.55
2023-04-07T21:45:10.132Z,71.81
2023-04-07T21:47:14.794Z,72.15
2023-04-07T21:49:22.330Z,72.01
2023-04-07T21:51:24.882Z,72.31
2023-04-07T21:53:27.562Z,72.43
2023-04-07T21:55:30.110Z,72.39
2023-04-07T21:57:32.694Z,72.35
2023-04-07T21:59:35.936Z,72.74
2023-04-07T22:01:38.597Z,72.52
2023-04-07T22:03:44.292Z,71.81
2023-04-07T22:05:46.991Z,71.66
2023-04-07T22:07:49.984Z,71.96
2023-04-07T22:09:52.648Z,72.33
2023-04-07T22:11:55.776Z,71.24
2023-04-07T22:13:58.374Z,71.64
2023-04-07T22:16:02.175Z,71.48
2023-04-07T22:18:04.987Z,71.53
2023-04-07T22:20:11.145Z,71.46
2023-04-07T22:22:13.696Z,71.69
2023-04-07T22:24:16.610Z,71.33
2023-04-07T22:26:19.298Z,71.60
2023-04-07T22:28:21.873Z,72.02
2023-04-07T22:30:24.629Z,71.04
2023-04-07T22:32:27.343Z,71.38
2023-04-07T22:34:29.932Z,71.56
2023-04-07T22:36:34.339Z,71.59
2023-04-07T22:38:36.896Z,71.69
2023-04-07T22:40:39.434Z,71.84
2023-04-07T22:42:42.027Z,71.76
2023-04-07T22:44:44.557Z,71.27
2023-04-07T22:46:47.171Z,71.24
2023-04-07T22:48:49.994Z,71.32
2023-04-07T22:50:52.662Z,71.55
2023-04-07T22:52:56.556Z,71.43
2023-04-07T22:54:59.115Z,71.70
2023-04-07T22:57:03.072Z,71.90
2023-04-07T22:59:06.063Z,70.82
2023-04-07T23:01:08.689Z,71.56
2023-04-07T23:03:11.608Z,71.78
2023-04-07T23:05:14.268Z,71.92
2023-04-07T23:07:17.099Z,72.21
2023-04-07T23:09:23.635Z,72.32
2023-04-07T23:11:26.288Z,72.13
2023-04-07T23:13:28.837Z,72.35
2023-04-07T23:15:31.411Z,72.25
2023-04-07T23:17:34.018Z,72.21
2023-04-07T23:19:36.611Z,71.91
2023-04-07T23:21:39.616Z,72.26
2023-04-07T23:23:42.512Z,72.22
2023-04-07T23:25:46.735Z,72.34
2023-04-07T23:27:49.272Z,72.35
2023-04-07T23:29:51.998Z,72.34
2023-04-07T23:31:54.633Z,71.81
2023-04-07T23:33:58.668Z,72.05
2023-04-07T23:36:01.302Z,71.76
2023-04-07T23:38:03.857Z,71.82
2023-04-07T23:40:07.721Z,72.03
2023-04-07T23:42:11.792Z,71.88
2023-04-07T23:44:14.354Z,72.01
2023-04-07T23:46:17.014Z,71.69
2023-04-07T23:48:19.660Z,71.49
2023-04-07T23:50:22.245Z,71.44
2023-04-07T23:52:24.860Z,71.78
2023-04-07T23:54:27.680Z,72.23
2023-04-07T23:56:30.506Z,72.33
2023-04-07T23:58:34.400Z,72.90
